Detall de PIREP

Printer-friendly versionPDF version

[2009/11/20 22:42:00]
Flight IATA:CT2314
Pilot Number:026
Company ICAO:CAT
Aircraft Type:DC85/A
PAX:136
Departing Airport: LIEA
Destination Airport: LIPZ
Alternate Airport:LIRP
Online: VATSIM
Route:MINKA UL5 TALIN UL125 ELB UL12 FRZ UM167 ARGEX
Flight Level:FL320
No Slew and time accel
No pause
Crash detect
Detect pilot in Cockpit between each 30 and 45 minutes
22:42 Zero fuel Weight: 186167 Lbs, Fuel Weight: 27993 Lbs
22:42 VATSIM:LIEA 202220Z 04003KT 7000 MIFG NSC 09/08 Q1029
22:42 VATSIM:LIPZ 202220Z 00000KT 5000 BR BKN021 13/09 Q1032
22:42 VOICE CATALONIAN / IATA CT2314
22:46 Parking Brakes off
22:52 Take-off
22:52 Take off Weight: 213124 Lbs
22:52 Wind: 040º @ 003 Knots Heading: 203º
22:52 POS N40º 37´ 32´´ E008º 17´ 13´´
22:52 Gear Up: 178 Knots
22:52 Flaps:3 at 178 Knots
22:53 Flaps:2 at 201 Knots
22:53 Flaps:1 at 209 Knots
22:54 Flaps:0 at 232 Knots
23:
07 Wind:220º@011 Knots Heading: 042º Ground Speed: 458 Knots Altitude 31922 ft
23:07 TOC
23:07 Fuel Weight: 21861 Lb
23:22 Wind:129º@004 Knots Heading: 023º Ground Speed: 468 Knots Altitude 32490 ft
23:30 TOD
23:30 Fuel Weight: 16503 Lb
23:37 Wind:241º@013 Knots Heading: 039º Ground Speed: 403 Knots Altitude 17896 ft
23:48 Flaps:1 at 233 Knots
23:48 Gear Down: 235 Knots
23:48 Flaps:2 at 213 Knots
23:49 Flaps:3 at 191 Knots
23:49 Flaps:4 at 168 Knots
23:50 Flaps:5 at 153 Knots
23:50 TouchDown:Rate -339 ft/min Speed: 124 Knots
23:50 VATSIM:LIPZ 202320Z 00000KT 5000 BR BKN020 12/08 Q1032
23:50 Land
23:50 Wind:069º@000 Knots
23:50 Heading: 037º
23:50 Flight Duration: 00:58
23:50 Landing Weight: 201095 Lbs
23:50 POS N45º 30´ 40´´ E012º 21´ 35´´
23:55 Parking brakes on
23:55 Block to Block Duration: 01:09
23:55 Final Fuel: 14484 Lbls
23:55 Spent Fuel: 135
09 Lbls
23:55 Flight Length: 379 NM
23:55 TOD Land Length: 112 NM

Exportar CSV

Powered by Drupal - Modified by Danger4k